createdAt,value
2023-03-06T00:01:00.056Z,4.50
2023-03-06T00:03:32.271Z,4.40
2023-03-06T00:06:03.511Z,4.50
2023-03-06T00:08:37.063Z,4.50
2023-03-06T00:11:08.293Z,4.50
2023-03-06T00:13:39.120Z,4.50
2023-03-06T00:16:12.475Z,4.50
2023-03-06T00:18:44.322Z,4.50
2023-03-06T00:21:15.190Z,4.50
2023-03-06T00:23:45.923Z,4.50
2023-03-06T00:26:16.925Z,4.50
2023-03-06T00:28:47.706Z,4.40
2023-03-06T00:31:21.166Z,4.40
2023-03-06T00:33:51.922Z,4.40
2023-03-06T00:36:22.800Z,4.40
2023-03-06T00:38:53.551Z,4.40
2023-03-06T00:41:24.955Z,4.50
2023-03-06T00:43:55.749Z,4.50
2023-03-06T00:46:29.083Z,4.40
2023-03-06T00:49:00.177Z,4.40
2023-03-06T00:51:31.095Z,4.40
2023-03-06T00:54:01.852Z,4.40
2023-03-06T00:56:32.883Z,4.40
2023-03-06T00:59:03.751Z,4.50
2023-03-06T01:01:37.129Z,4.50
2023-03-06T01:04:08.520Z,4.30
2023-03-06T01:06:39.644Z,4.40
2023-03-06T01:09:10.387Z,4.50
2023-03-06T01:11:41.141Z,4.50
2023-03-06T01:14:14.688Z,4.60
2023-03-06T01:16:48.099Z,4.50
2023-03-06T01:19:21.842Z,4.50
2023-03-06T01:21:52.930Z,4.40
2023-03-06T01:24:24.021Z,4.50
2023-03-06T01:26:54.743Z,4.50
2023-03-06T01:29:26.466Z,4.50
2023-03-06T01:32:00.077Z,4.40
2023-03-06T01:34:31.123Z,4.50
2023-03-06T01:37:01.879Z,4.50
2023-03-06T01:39:32.820Z,4.50
2023-03-06T01:42:03.773Z,4.50
2023-03-06T01:44:34.709Z,4.60
2023-03-06T01:47:08.454Z,4.60
2023-03-06T01:49:42.738Z,4.60
2023-03-06T01:52:17.002Z,4.50
2023-03-06T01:54:53.073Z,4.50
2023-03-06T01:57:27.114Z,4.60
2023-03-06T02:00:02.785Z,4.60
2023-03-06T02:02:37.670Z,4.60
2023-03-06T02:05:09.926Z,4.60
2023-03-06T02:07:42.664Z,4.60
2023-03-06T02:10:14.170Z,4.50
2023-03-06T02:12:46.538Z,4.50
2023-03-06T02:15:19.418Z,4.50
2023-03-06T02:17:54.248Z,4.50
2023-03-06T02:20:39.802Z,4.50
2023-03-06T02:23:15.530Z,4.50
2023-03-06T02:25:51.800Z,4.50
2023-03-06T02:28:25.588Z,4.50
2023-03-06T02:30:58.386Z,4.40
2023-03-06T02:33:40.403Z,4.50
2023-03-06T02:36:17.535Z,4.50
2023-03-06T02:38:52.328Z,4.60
2023-03-06T02:41:25.853Z,4.50
2023-03-06T02:43:56.770Z,4.50
2023-03-06T02:46:27.632Z,4.40
2023-03-06T02:48:58.695Z,4.90
2023-03-06T02:51:32.815Z,4.40
2023-03-06T02:54:03.994Z,4.50
2023-03-06T02:56:37.359Z,4.50
2023-03-06T02:59:08.064Z,4.40
2023-03-06T03:01:38.991Z,4.40
2023-03-06T03:04:09.843Z,4.40
2023-03-06T03:06:40.596Z,4.40
2023-03-06T03:09:11.650Z,4.30
2023-03-06T03:11:44.964Z,4.30
2023-03-06T03:14:16.701Z,4.30
2023-03-06T03:16:50.616Z,4.30
2023-03-06T03:19:21.418Z,4.20
2023-03-06T03:21:52.340Z,4.20
2023-03-06T03:24:23.093Z,4.10
2023-03-06T03:26:56.439Z,4.00
2023-03-06T03:29:27.348Z,3.70
2023-03-06T03:31:58.235Z,4.00
2023-03-06T03:34:29.273Z,4.00
2023-03-06T03:37:00.059Z,3.90
2023-03-06T03:39:30.979Z,4.00
2023-03-06T03:42:04.400Z,3.80
2023-03-06T03:44:35.302Z,4.00
2023-03-06T03:47:06.250Z,4.00
2023-03-06T03:49:37.262Z,4.00
2023-03-06T03:52:08.204Z,4.10
2023-03-06T03:54:39.201Z,4.10
2023-03-06T03:57:12.592Z,4.10
2023-03-06T03:59:43.360Z,4.10
2023-03-06T04:02:14.770Z,4.20
2023-03-06T04:04:45.719Z,4.20
2023-03-06T04:07:16.566Z,4.20
2023-03-06T04:09:48.082Z,4.10
2023-03-06T04:12:21.707Z,4.10
2023-03-06T04:14:52.664Z,4.10
2023-03-06T04:17:26.694Z,4.10
2023-03-06T04:19:57.426Z,4.20
2023-03-06T04:22:28.369Z,4.20
2023-03-06T04:24:59.528Z,4.20
2023-03-06T04:27:32.849Z,4.30
2023-03-06T04:30:03.600Z,4.20
2023-03-06T04:32:34.602Z,4.20
2023-03-06T04:35:05.630Z,4.30
2023-03-06T04:37:36.370Z,4.20
2023-03-06T04:40:09.392Z,4.20
2023-03-06T04:42:42.855Z,4.30
2023-03-06T04:45:14.443Z,4.30
2023-03-06T04:47:45.285Z,4.30
2023-03-06T04:50:16.707Z,4.40
2023-03-06T04:52:47.942Z,4.30
2023-03-06T04:55:19.894Z,4.40
2023-03-06T04:57:55.451Z,4.30
2023-03-06T05:00:30.347Z,4.30
2023-03-06T05:03:02.243Z,4.20
2023-03-06T05:05:33.545Z,4.20
2023-03-06T05:08:06.204Z,4.20
2023-03-06T05:10:37.092Z,4.10
2023-03-06T05:13:11.058Z,4.20
2023-03-06T05:15:43.090Z,4.10
2023-03-06T05:18:14.121Z,4.00
2023-03-06T05:20:45.072Z,4.00
2023-03-06T05:23:16.200Z,4.00
2023-03-06T05:25:47.307Z,3.90
2023-03-06T05:28:20.635Z,3.90
2023-03-06T05:30:52.060Z,3.80
2023-03-06T05:33:22.969Z,3.80
2023-03-06T05:35:54.158Z,3.80
2023-03-06T05:38:25.073Z,3.70
2023-03-06T05:40:56.386Z,3.60
2023-03-06T05:43:29.924Z,3.60
2023-03-06T05:46:05.265Z,3.60
2023-03-06T05:48:40.263Z,3.60
2023-03-06T05:51:11.130Z,3.60
2023-03-06T05:53:41.953Z,3.60
2023-03-06T05:56:13.140Z,3.60
2023-03-06T05:58:46.567Z,3.70
2023-03-06T06:01:19.311Z,3.60
2023-03-06T06:03:50.642Z,3.30
2023-03-06T06:06:21.497Z,3.90
2023-03-06T06:08:52.254Z,3.50
2023-03-06T06:11:23.483Z,3.60
2023-03-06T06:13:56.797Z,3.50
2023-03-06T06:16:27.592Z,3.60
2023-03-06T06:19:00.194Z,3.60
2023-03-06T06:21:31.300Z,3.60
2023-03-06T06:24:02.166Z,3.60
2023-03-06T06:26:33.315Z,3.60
2023-03-06T06:29:06.840Z,3.60
2023-03-06T06:31:38.202Z,3.70
2023-03-06T06:34:10.684Z,3.70
2023-03-06T06:36:42.354Z,3.80
2023-03-06T06:39:16.499Z,3.80
2023-03-06T06:41:59.772Z,3.80
2023-03-06T06:44:36.012Z,3.80
2023-03-06T06:47:25.176Z,3.80
2023-03-06T06:49:57.841Z,3.70
2023-03-06T06:52:28.901Z,3.80
2023-03-06T06:54:59.877Z,3.90
2023-03-06T06:57:32.278Z,3.90
2023-03-06T07:00:06.418Z,4.20
2023-03-06T07:02:37.265Z,3.90
2023-03-06T07:05:09.591Z,3.90
2023-03-06T07:07:41.175Z,3.90
2023-03-06T07:10:19.400Z,3.90
2023-03-06T07:12:50.805Z,3.90
2023-03-06T07:15:26.805Z,3.90
2023-03-06T07:17:57.582Z,3.90
2023-03-06T07:20:28.696Z,3.90
2023-03-06T07:22:59.675Z,4.20
2023-03-06T07:25:30.567Z,4.10
2023-03-06T07:28:01.324Z,4.00
2023-03-06T07:30:35.019Z,4.00
2023-03-06T07:33:05.928Z,3.90
2023-03-06T07:35:36.933Z,3.90
2023-03-06T07:38:07.796Z,3.90
2023-03-06T07:40:39.027Z,4.00
2023-03-06T07:43:19.110Z,4.00
2023-03-06T07:45:59.161Z,4.10
2023-03-06T07:48:30.934Z,3.90
2023-03-06T07:51:04.370Z,3.90
2023-03-06T07:53:36.241Z,4.00
2023-03-06T07:56:09.449Z,4.10
2023-03-06T07:58:41.959Z,4.10
2023-03-06T08:01:20.753Z,4.10
2023-03-06T08:03:51.889Z,4.00
2023-03-06T08:06:24.866Z,4.10
2023-03-06T08:08:57.168Z,4.10
2023-03-06T08:11:30.456Z,4.20
2023-03-06T08:14:02.196Z,4.10
2023-03-06T08:16:35.813Z,4.20
2023-03-06T08:19:12.885Z,4.10
2023-03-06T08:21:46.275Z,4.10
2023-03-06T08:24:18.585Z,4.20
2023-03-06T08:27:01.926Z,4.20
2023-03-06T08:29:32.848Z,4.20
2023-03-06T08:32:09.633Z,4.20
2023-03-06T08:34:42.546Z,4.10
2023-03-06T08:37:13.370Z,4.20
2023-03-06T08:39:44.289Z,4.20
2023-03-06T08:42:16.007Z,4.20
2023-03-06T08:44:46.986Z,4.30
2023-03-06T08:47:26.595Z,4.30
2023-03-06T08:50:00.465Z,4.40
2023-03-06T08:52:31.520Z,4.40
2023-03-06T08:55:03.672Z,4.40
2023-03-06T08:57:34.640Z,4.40
2023-03-06T09:00:07.478Z,4.20
2023-03-06T09:02:41.053Z,4.20
2023-03-06T09:05:12.500Z,4.50
2023-03-06T09:07:43.419Z,4.50
2023-03-06T09:10:17.683Z,4.50
2023-03-06T09:12:50.832Z,4.60
2023-03-06T09:15:25.013Z,4.60
2023-03-06T09:17:58.527Z,4.60
2023-03-06T09:20:46.938Z,4.60
2023-03-06T09:23:17.685Z,4.50
2023-03-06T09:25:48.820Z,4.60
2023-03-06T09:28:19.653Z,4.60
2023-03-06T09:30:50.542Z,4.80
2023-03-06T09:33:28.734Z,4.50
2023-03-06T09:36:00.277Z,4.50
2023-03-06T09:38:31.432Z,4.40
2023-03-06T09:43:45.962Z,4.50
2023-03-06T09:46:42.536Z,5.10
2023-03-06T09:49:38.837Z,4.70
2023-03-06T09:52:28.293Z,4.80
2023-03-06T09:55:01.928Z,4.90
2023-03-06T09:57:38.104Z,4.80
2023-03-06T10:00:14.870Z,4.70
2023-03-06T10:02:51.799Z,4.70
2023-03-06T10:05:28.888Z,4.70
2023-03-06T10:08:03.942Z,4.60
2023-03-06T10:10:45.024Z,4.50
2023-03-06T10:13:22.140Z,4.60
2023-03-06T10:15:53.456Z,4.60
2023-03-06T10:18:24.302Z,4.50
2023-03-06T10:21:17.281Z,4.50
2023-03-06T10:23:57.309Z,4.60
2023-03-06T10:26:33.440Z,4.50
2023-03-06T10:29:31.086Z,4.60
2023-03-06T10:32:12.134Z,4.60
2023-03-06T10:34:44.831Z,4.60
2023-03-06T10:37:22.242Z,4.80
2023-03-06T10:39:58.093Z,4.90
2023-03-06T10:42:28.997Z,4.90
2023-03-06T10:45:16.346Z,4.90
2023-03-06T10:47:51.998Z,5.10
2023-03-06T10:50:30.648Z,5.20
2023-03-06T10:53:07.071Z,5.20
2023-03-06T10:55:39.820Z,5.70
2023-03-06T10:58:22.094Z,5.20
2023-03-06T11:01:06.741Z,5.20
2023-03-06T11:03:38.870Z,5.10
2023-03-06T11:06:16.000Z,5.00
2023-03-06T11:11:39.737Z,4.90
2023-03-06T11:14:17.852Z,5.10
2023-03-06T11:16:54.869Z,5.00
2023-03-06T11:19:28.899Z,4.90
2023-03-06T11:22:04.709Z,4.90
2023-03-06T11:24:43.041Z,4.90
2023-03-06T11:27:25.181Z,5.00
2023-03-06T11:29:58.199Z,5.10
2023-03-06T11:32:33.772Z,5.10
2023-03-06T11:35:08.422Z,5.20
2023-03-06T11:37:48.866Z,5.30
2023-03-06T11:40:29.771Z,5.50
2023-03-06T11:43:09.013Z,5.50
2023-03-06T11:45:47.055Z,5.60
2023-03-06T11:48:28.005Z,5.60
2023-03-06T11:51:07.282Z,5.60
2023-03-06T11:53:41.946Z,5.60
2023-03-06T11:56:32.216Z,5.60
2023-03-06T11:59:41.477Z,5.70
2023-03-06T12:02:34.030Z,5.80
2023-03-06T12:05:21.446Z,5.90
2023-03-06T12:07:59.959Z,5.80
2023-03-06T12:10:39.386Z,5.80
2023-03-06T12:13:30.143Z,5.90
2023-03-06T12:16:23.050Z,6.00
2023-03-06T12:19:05.127Z,6.20
2023-03-06T12:21:43.428Z,6.30
2023-03-06T12:24:39.076Z,6.60
2023-03-06T12:27:22.825Z,6.90
2023-03-06T12:30:12.057Z,7.10
2023-03-06T12:32:52.052Z,7.30
2023-03-06T12:35:46.499Z,7.30
2023-03-06T12:38:35.034Z,7.40
2023-03-06T12:41:25.086Z,7.40
2023-03-06T12:44:22.639Z,7.40
2023-03-06T12:47:00.483Z,7.40
2023-03-06T12:49:38.836Z,7.50
2023-03-06T12:52:12.468Z,7.50
2023-03-06T12:54:44.559Z,7.40
2023-03-06T12:57:21.098Z,7.50
2023-03-06T12:59:53.424Z,7.60
2023-03-06T13:02:53.701Z,7.60
2023-03-06T13:05:52.183Z,7.50
2023-03-06T13:08:52.842Z,7.40
2023-03-06T13:11:38.938Z,7.40
2023-03-06T13:14:26.169Z,7.40
2023-03-06T13:16:57.437Z,7.10
2023-03-06T13:19:32.747Z,7.00
2023-03-06T13:22:05.289Z,7.00
2023-03-06T13:24:37.553Z,6.90
2023-03-06T13:27:10.903Z,7.00
2023-03-06T13:29:59.751Z,7.00
2023-03-06T13:32:36.044Z,7.00
2023-03-06T13:35:39.997Z,7.10
2023-03-06T13:38:33.614Z,7.10
2023-03-06T13:41:39.074Z,6.90
2023-03-06T13:44:46.074Z,6.80
2023-03-06T13:48:10.672Z,6.70
2023-03-06T13:50:39.784Z,6.70
2023-03-06T13:53:35.914Z,6.80
2023-03-06T13:56:26.507Z,6.90
2023-03-06T13:59:15.411Z,6.90
2023-03-06T14:01:59.194Z,6.90
2023-03-06T14:04:38.986Z,6.90
2023-03-06T14:07:26.860Z,6.90
2023-03-06T14:10:13.788Z,6.70
2023-03-06T14:13:02.714Z,7.00
2023-03-06T14:15:44.496Z,7.00
2023-03-06T14:18:21.042Z,6.90
2023-03-06T14:20:56.600Z,6.90
2023-03-06T14:23:42.328Z,6.90
2023-03-06T14:26:17.806Z,6.90
2023-03-06T14:28:58.591Z,6.90
2023-03-06T14:31:33.704Z,6.80
2023-03-06T14:34:08.148Z,6.90
2023-03-06T14:36:45.544Z,6.90
2023-03-06T14:39:22.840Z,6.90
2023-03-06T14:41:53.853Z,6.90
2023-03-06T14:44:28.262Z,7.00
2023-03-06T14:47:14.696Z,7.00
2023-03-06T14:49:45.511Z,7.10
2023-03-06T14:52:23.246Z,7.20
2023-03-06T14:54:54.303Z,7.10
2023-03-06T14:57:27.442Z,7.20
2023-03-06T15:00:04.623Z,7.30
2023-03-06T15:02:38.150Z,7.30
2023-03-06T15:05:18.551Z,7.40
2023-03-06T15:07:49.736Z,7.40
2023-03-06T15:10:28.773Z,7.40
2023-03-06T15:13:11.508Z,7.40
2023-03-06T15:15:45.058Z,7.40
2023-03-06T15:18:39.068Z,7.40
2023-03-06T15:21:12.966Z,7.40
2023-03-06T15:23:45.660Z,7.40
2023-03-06T15:26:38.585Z,7.40
2023-03-06T15:29:24.448Z,7.40
2023-03-06T15:32:16.242Z,7.30
2023-03-06T15:34:47.259Z,7.30
2023-03-06T15:37:30.320Z,7.20
2023-03-06T15:40:09.624Z,7.20
2023-03-06T15:42:40.627Z,7.30
2023-03-06T15:45:18.943Z,7.30
2023-03-06T15:47:54.186Z,7.40
2023-03-06T15:50:26.657Z,7.40
2023-03-06T15:52:58.170Z,7.30
2023-03-06T15:55:29.064Z,7.20
2023-03-06T15:58:02.200Z,7.20
2023-03-06T16:00:34.804Z,7.10
2023-03-06T16:03:08.371Z,7.10
2023-03-06T16:05:39.157Z,7.10
2023-03-06T16:08:10.997Z,7.10
2023-03-06T16:10:44.458Z,7.00
2023-03-06T16:13:23.221Z,6.90
2023-03-06T16:15:54.422Z,6.90
2023-03-06T16:18:27.778Z,6.90
2023-03-06T16:21:01.527Z,6.80
2023-03-06T16:23:32.289Z,6.60
2023-03-06T16:26:03.047Z,6.60
2023-03-06T16:28:40.550Z,6.60
2023-03-06T16:31:18.014Z,6.50
2023-03-06T16:33:51.723Z,6.50
2023-03-06T16:36:26.573Z,6.40
2023-03-06T16:38:57.803Z,6.30
2023-03-06T16:41:28.605Z,6.30
2023-03-06T16:43:59.409Z,6.40
2023-03-06T16:46:30.562Z,6.40
2023-03-06T16:49:04.095Z,6.20
2023-03-06T16:51:37.273Z,6.10
2023-03-06T16:54:08.190Z,6.10
2023-03-06T16:56:38.922Z,6.10
2023-03-06T16:59:09.824Z,6.00
2023-03-06T17:01:42.968Z,6.00
2023-03-06T17:04:16.452Z,6.00
2023-03-06T17:06:47.182Z,6.10
2023-03-06T17:09:20.820Z,6.00
2023-03-06T17:11:51.747Z,6.00
2023-03-06T17:14:22.490Z,6.00
2023-03-06T17:16:53.452Z,6.00
2023-03-06T17:19:32.721Z,6.00
2023-03-06T17:22:06.231Z,6.00
2023-03-06T17:24:38.891Z,6.00
2023-03-06T17:27:09.738Z,5.90
2023-03-06T17:29:40.515Z,5.90
2023-03-06T17:32:11.462Z,5.80
2023-03-06T17:34:44.994Z,5.90
2023-03-06T17:37:15.885Z,5.90
2023-03-06T17:39:46.764Z,5.80
2023-03-06T17:42:17.564Z,5.80
2023-03-06T17:44:48.391Z,5.70
2023-03-06T17:47:19.512Z,5.70
2023-03-06T17:49:54.062Z,5.80
2023-03-06T17:52:24.764Z,5.80
2023-03-06T17:54:56.696Z,5.80
2023-03-06T17:57:31.424Z,5.80
2023-03-06T18:00:02.556Z,5.80
2023-03-06T18:02:33.381Z,5.80
2023-03-06T18:05:07.358Z,5.80
2023-03-06T18:07:38.149Z,5.80
2023-03-06T18:10:09.747Z,5.70
2023-03-06T18:12:43.379Z,5.70
2023-03-06T18:15:14.425Z,5.70
2023-03-06T18:17:45.374Z,5.70
2023-03-06T18:20:19.520Z,5.70
2023-03-06T18:22:50.227Z,5.60
2023-03-06T18:25:21.372Z,5.60
2023-03-06T18:27:52.515Z,5.90
2023-03-06T18:30:23.394Z,5.60
2023-03-06T18:32:54.271Z,5.50
2023-03-06T18:35:46.658Z,5.60
2023-03-06T18:38:17.426Z,5.50
2023-03-06T18:40:48.451Z,5.50
2023-03-06T18:43:19.357Z,5.80
2023-03-06T18:45:57.052Z,5.40
2023-03-06T18:48:27.862Z,5.40
2023-03-06T18:51:06.578Z,5.40
2023-03-06T18:53:37.876Z,5.40
2023-03-06T18:56:10.735Z,5.40
2023-03-06T18:58:41.540Z,5.40
2023-03-06T19:01:12.730Z,5.30
2023-03-06T19:03:43.624Z,5.20
2023-03-06T19:06:20.434Z,5.30
2023-03-06T19:08:51.404Z,5.30
2023-03-06T19:11:22.244Z,5.40
2023-03-06T19:13:53.036Z,5.40
2023-03-06T19:16:26.446Z,5.30
2023-03-06T19:18:58.026Z,5.30
2023-03-06T19:21:31.813Z,5.30
2023-03-06T19:24:04.129Z,5.30
2023-03-06T19:26:37.717Z,5.30
2023-03-06T19:29:08.576Z,5.40
2023-03-06T19:31:39.807Z,5.40
2023-03-06T19:34:10.919Z,5.30
2023-03-06T19:36:44.661Z,5.30
2023-03-06T19:39:15.802Z,5.30
2023-03-06T19:41:46.606Z,5.20
2023-03-06T19:44:17.428Z,5.20
2023-03-06T19:46:48.376Z,5.20
2023-03-06T19:49:21.739Z,5.10
2023-03-06T19:51:55.535Z,5.20
2023-03-06T19:54:26.913Z,5.10
2023-03-06T19:56:57.911Z,5.00
2023-03-06T19:59:28.726Z,5.00
2023-03-06T20:01:59.558Z,5.00
2023-03-06T20:04:33.694Z,5.00
2023-03-06T20:07:07.687Z,5.00
2023-03-06T20:09:38.528Z,4.80
2023-03-06T20:12:09.879Z,4.80
2023-03-06T20:14:40.855Z,4.80
2023-03-06T20:17:11.945Z,4.80
2023-03-06T20:19:42.863Z,4.80
2023-03-06T20:22:16.257Z,4.80
2023-03-06T20:24:54.355Z,4.80
2023-03-06T20:27:25.195Z,4.80
2023-03-06T20:29:55.905Z,4.80
2023-03-06T20:32:26.953Z,4.70
2023-03-06T20:34:58.007Z,4.60
2023-03-06T20:37:31.458Z,4.60
2023-03-06T20:40:02.363Z,4.60
2023-03-06T20:42:48.604Z,4.70
2023-03-06T20:45:20.924Z,4.70
2023-03-06T20:47:51.690Z,4.70
2023-03-06T20:50:22.417Z,4.80
2023-03-06T20:52:56.549Z,4.60
2023-03-06T20:55:27.746Z,4.60
2023-03-06T20:57:58.506Z,4.50
2023-03-06T21:00:36.702Z,4.60
2023-03-06T21:03:08.339Z,4.60
2023-03-06T21:05:39.182Z,4.60
2023-03-06T21:08:12.556Z,4.60
2023-03-06T21:10:43.497Z,4.50
2023-03-06T21:13:14.357Z,4.40
2023-03-06T21:15:47.592Z,4.40
2023-03-06T21:18:18.395Z,4.40
2023-03-06T21:20:49.159Z,4.30
2023-03-06T21:23:22.843Z,4.30
2023-03-06T21:25:55.115Z,4.30
2023-03-06T21:28:26.064Z,4.30
2023-03-06T21:30:59.062Z,4.30
2023-03-06T21:33:30.291Z,4.30
2023-03-06T21:36:01.125Z,4.30
2023-03-06T21:38:34.765Z,4.30
2023-03-06T21:41:10.756Z,4.20
2023-03-06T21:43:41.913Z,4.30
2023-03-06T21:46:13.608Z,4.30
2023-03-06T21:48:44.566Z,4.20
2023-03-06T21:51:18.635Z,4.10
2023-03-06T21:53:52.864Z,4.10
2023-03-06T21:56:27.937Z,4.10
2023-03-06T21:59:01.815Z,4.20
2023-03-06T22:01:33.156Z,4.00
2023-03-06T22:04:03.974Z,4.00
2023-03-06T22:06:34.839Z,4.00
2023-03-06T22:09:08.359Z,4.00
2023-03-06T22:11:39.512Z,4.00
2023-03-06T22:14:10.402Z,4.00
2023-03-06T22:16:41.320Z,4.00
2023-03-06T22:19:12.194Z,3.90
2023-03-06T22:21:42.980Z,3.90
2023-03-06T22:24:16.527Z,3.80
2023-03-06T22:26:47.227Z,3.80
2023-03-06T22:29:17.969Z,3.80
2023-03-06T22:31:48.907Z,3.80
2023-03-06T22:34:22.410Z,3.80
2023-03-06T22:36:53.248Z,3.80
2023-03-06T22:39:26.839Z,3.80
2023-03-06T22:41:59.162Z,3.80
2023-03-06T22:44:29.967Z,3.70
2023-03-06T22:47:00.721Z,3.70
2023-03-06T22:49:31.528Z,3.70
2023-03-06T22:52:05.404Z,3.70
2023-03-06T22:54:39.001Z,3.80
2023-03-06T22:57:11.002Z,3.80
2023-03-06T22:59:44.745Z,3.70
2023-03-06T23:02:15.575Z,3.60
2023-03-06T23:04:46.568Z,3.60
2023-03-06T23:07:17.266Z,3.60
2023-03-06T23:09:50.623Z,3.60
2023-03-06T23:12:29.317Z,3.60
2023-03-06T23:15:00.393Z,3.60
2023-03-06T23:17:31.192Z,3.60
2023-03-06T23:20:05.737Z,3.60
2023-03-06T23:22:36.420Z,3.60
2023-03-06T23:25:10.782Z,3.50
2023-03-06T23:27:41.647Z,3.60
2023-03-06T23:30:14.565Z,3.60
2023-03-06T23:32:46.658Z,3.50
2023-03-06T23:35:17.989Z,3.50
2023-03-06T23:37:49.038Z,3.50
2023-03-06T23:40:22.673Z,3.50
2023-03-06T23:42:53.374Z,3.60
2023-03-06T23:45:24.257Z,3.60
2023-03-06T23:47:55.089Z,3.60
2023-03-06T23:50:26.381Z,3.60
2023-03-06T23:52:58.396Z,3.70
2023-03-06T23:55:31.821Z,3.70
2023-03-06T23:58:02.631Z,3.60
